createdAt,value
2023-02-06T00:02:13.335Z,22.23
2023-02-06T00:04:35.665Z,15.70
2023-02-06T00:06:57.884Z,21.20
2023-02-06T00:09:20.131Z,15.63
2023-02-06T00:11:42.369Z,17.47
2023-02-06T00:14:04.618Z,17.80
2023-02-06T00:16:31.174Z,15.83
2023-02-06T00:18:54.241Z,16.07
2023-02-06T00:21:20.130Z,14.47
2023-02-06T00:23:42.350Z,16.83
2023-02-06T00:26:04.998Z,12.20
2023-02-06T00:28:27.302Z,14.80
2023-02-06T00:30:49.664Z,15.83
2023-02-06T00:33:12.083Z,13.33
2023-02-06T00:35:35.533Z,11.03
2023-02-06T00:37:59.761Z,14.93
2023-02-06T00:40:23.038Z,15.27
2023-02-06T00:42:45.270Z,14.17
2023-02-06T00:45:08.670Z,13.37
2023-02-06T00:47:31.026Z,13.80
2023-02-06T00:49:53.234Z,15.63
2023-02-06T00:52:15.485Z,9.57
2023-02-06T00:54:37.847Z,11.37
2023-02-06T00:57:00.114Z,12.20
2023-02-06T00:59:23.010Z,9.53
2023-02-06T01:01:45.228Z,9.27
2023-02-06T01:04:07.458Z,9.77
2023-02-06T01:06:30.256Z,12.63
2023-02-06T01:08:52.525Z,11.27
2023-02-06T01:11:16.543Z,11.90
2023-02-06T01:13:39.063Z,13.40
2023-02-06T01:16:01.333Z,15.73
2023-02-06T01:18:25.713Z,11.03
2023-02-06T01:20:48.172Z,13.17
2023-02-06T01:23:10.611Z,12.53
2023-02-06T01:25:33.173Z,11.83
2023-02-06T01:27:55.659Z,12.67
2023-02-06T01:30:18.928Z,14.53
2023-02-06T01:32:41.880Z,14.13
2023-02-06T01:35:04.214Z,9.37
2023-02-06T01:37:26.463Z,11.73
2023-02-06T01:39:48.670Z,11.77
2023-02-06T01:42:13.218Z,13.27
2023-02-06T01:44:35.600Z,10.43
2023-02-06T01:46:57.950Z,10.00
2023-02-06T01:49:28.522Z,14.00
2023-02-06T01:52:05.353Z,12.83
2023-02-06T01:54:30.302Z,14.47
2023-02-06T01:57:02.258Z,11.77
2023-02-06T01:59:27.777Z,10.63
2023-02-06T02:01:50.190Z,8.77
2023-02-06T02:04:15.740Z,9.40
2023-02-06T02:06:38.410Z,9.47
2023-02-06T02:09:03.986Z,9.63
2023-02-06T02:11:40.128Z,7.90
2023-02-06T02:14:06.107Z,10.33
2023-02-06T02:16:54.017Z,9.80
2023-02-06T02:19:40.533Z,10.53
2023-02-06T02:22:09.532Z,8.13
2023-02-06T02:24:47.288Z,7.93
2023-02-06T02:27:24.561Z,6.57
2023-02-06T02:29:57.903Z,5.50
2023-02-06T02:32:44.346Z,8.87
2023-02-06T02:35:28.145Z,6.90
2023-02-06T02:37:55.100Z,5.33
2023-02-06T02:40:38.302Z,6.90
2023-02-06T02:43:18.888Z,6.43
2023-02-06T02:45:56.212Z,5.70
2023-02-06T02:48:24.638Z,7.47
2023-02-06T02:50:58.858Z,6.07
2023-02-06T02:53:27.026Z,8.57
2023-02-06T02:55:49.814Z,7.47
2023-02-06T02:58:15.830Z,8.10
2023-02-06T03:00:40.906Z,5.60
2023-02-06T03:03:05.422Z,5.63
2023-02-06T03:05:28.085Z,3.90
2023-02-06T03:08:10.009Z,4.80
2023-02-06T03:10:42.393Z,4.93
2023-02-06T03:13:07.431Z,6.37
2023-02-06T03:15:32.678Z,3.87
2023-02-06T03:17:59.331Z,6.40
2023-02-06T03:20:22.348Z,8.00
2023-02-06T03:22:48.176Z,5.43
2023-02-06T03:25:12.754Z,5.23
2023-02-06T03:27:35.260Z,8.57
2023-02-06T03:29:59.311Z,5.20
2023-02-06T03:32:37.587Z,6.90
2023-02-06T03:35:08.702Z,8.67
2023-02-06T03:37:31.246Z,5.37
2023-02-06T03:39:53.606Z,6.43
2023-02-06T03:42:17.066Z,7.47
2023-02-06T03:44:42.635Z,9.17
2023-02-06T03:47:06.242Z,7.27
2023-02-06T03:49:29.823Z,8.43
2023-02-06T03:52:06.845Z,6.93
2023-02-06T03:54:29.471Z,8.43
2023-02-06T03:56:57.091Z,7.47
2023-02-06T03:59:19.396Z,7.30
2023-02-06T04:01:44.444Z,9.27
2023-02-06T04:04:06.833Z,9.53
2023-02-06T04:06:29.058Z,5.80
2023-02-06T04:08:51.442Z,10.10
2023-02-06T04:11:13.597Z,6.90
2023-02-06T04:13:36.114Z,6.70
2023-02-06T04:15:58.499Z,9.83
2023-02-06T04:18:20.776Z,9.00
2023-02-06T04:20:43.023Z,4.00
2023-02-06T04:23:05.272Z,5.97
2023-02-06T04:25:27.455Z,10.20
2023-02-06T04:27:49.764Z,4.63
2023-02-06T04:30:12.405Z,5.77
2023-02-06T04:32:34.699Z,8.60
2023-02-06T04:34:57.167Z,5.30
2023-02-06T04:37:19.420Z,7.53
2023-02-06T04:39:41.686Z,5.63
2023-02-06T04:42:04.148Z,4.87
2023-02-06T04:44:26.362Z,7.93
2023-02-06T04:46:48.634Z,7.70
2023-02-06T04:49:11.570Z,9.07
2023-02-06T04:51:33.829Z,4.13
2023-02-06T04:53:56.300Z,5.17
2023-02-06T04:56:18.509Z,7.47
2023-02-06T04:58:40.974Z,6.40
2023-02-06T05:01:03.345Z,4.53
2023-02-06T05:03:25.706Z,5.90
2023-02-06T05:05:47.958Z,5.90
2023-02-06T05:08:10.109Z,10.20
2023-02-06T05:10:32.406Z,8.30
2023-02-06T05:12:56.006Z,4.10
2023-02-06T05:15:19.449Z,8.17
2023-02-06T05:17:41.598Z,10.10
2023-02-06T05:20:04.006Z,6.37
2023-02-06T05:22:26.653Z,7.27
2023-02-06T05:24:48.936Z,7.43
2023-02-06T05:27:11.172Z,8.40
2023-02-06T05:29:33.429Z,6.63
2023-02-06T05:31:55.706Z,5.47
2023-02-06T05:34:18.030Z,12.67
2023-02-06T05:36:40.499Z,13.17
2023-02-06T05:39:02.785Z,7.40
2023-02-06T05:41:25.076Z,11.10
2023-02-06T05:43:47.541Z,9.70
2023-02-06T05:46:11.236Z,12.10
2023-02-06T05:48:35.381Z,8.87
2023-02-06T05:50:58.221Z,13.17
2023-02-06T05:53:20.476Z,13.47
2023-02-06T05:55:42.774Z,10.97
2023-02-06T05:58:06.331Z,12.87
2023-02-06T06:00:28.679Z,12.70
2023-02-06T06:02:51.101Z,10.70
2023-02-06T06:05:13.359Z,10.30
2023-02-06T06:07:35.537Z,13.67
2023-02-06T06:10:09.728Z,11.63
2023-02-06T06:12:31.949Z,14.43
2023-02-06T06:14:54.205Z,19.07
2023-02-06T06:17:16.453Z,15.63
2023-02-06T06:19:38.686Z,17.63
2023-02-06T06:22:00.869Z,12.63
2023-02-06T06:24:23.262Z,14.43
2023-02-06T06:26:45.556Z,14.40
2023-02-06T06:29:07.840Z,8.63
2023-02-06T06:31:30.101Z,13.53
2023-02-06T06:33:52.846Z,12.77
2023-02-06T06:36:15.337Z,16.30
2023-02-06T06:38:37.650Z,12.60
2023-02-06T06:41:00.126Z,17.87
2023-02-06T06:43:22.441Z,15.57
2023-02-06T06:45:44.656Z,11.50
2023-02-06T06:48:06.959Z,11.83
2023-02-06T06:50:29.226Z,16.00
2023-02-06T06:52:51.475Z,15.03
2023-02-06T06:55:13.678Z,15.23
2023-02-06T06:57:35.966Z,14.50
2023-02-06T06:59:58.364Z,14.07
2023-02-06T07:02:20.624Z,13.53
2023-02-06T07:04:42.958Z,14.63
2023-02-06T07:07:05.199Z,11.37
2023-02-06T07:09:27.409Z,11.33
2023-02-06T07:11:49.648Z,14.00
2023-02-06T07:14:12.022Z,16.97
2023-02-06T07:16:34.208Z,9.90
2023-02-06T07:18:56.474Z,11.37
2023-02-06T07:21:19.918Z,15.00
2023-02-06T07:23:42.587Z,12.53
2023-02-06T07:26:04.914Z,13.33
2023-02-06T07:28:27.219Z,17.20
2023-02-06T07:30:49.478Z,14.87
2023-02-06T07:33:11.729Z,15.50
2023-02-06T07:35:34.451Z,16.90
2023-02-06T07:37:56.786Z,12.17
2023-02-06T07:40:19.126Z,11.17
2023-02-06T07:42:41.275Z,17.03
2023-02-06T07:45:11.104Z,15.40
2023-02-06T07:47:33.310Z,18.00
2023-02-06T07:49:55.621Z,13.53
2023-02-06T07:52:17.966Z,12.60
2023-02-06T07:54:40.133Z,14.57
2023-02-06T07:57:02.601Z,19.60
2023-02-06T07:59:24.946Z,18.77
2023-02-06T08:01:47.265Z,14.37
2023-02-06T08:04:09.529Z,20.37
2023-02-06T08:06:31.866Z,15.60
2023-02-06T08:08:57.590Z,18.60
2023-02-06T08:11:20.586Z,18.53
2023-02-06T08:13:43.245Z,19.77
2023-02-06T08:16:06.262Z,17.90
2023-02-06T08:18:28.550Z,16.13
2023-02-06T08:20:50.794Z,20.43
2023-02-06T08:23:13.122Z,15.73
2023-02-06T08:25:35.699Z,13.70
2023-02-06T08:27:58.274Z,19.90
2023-02-06T08:30:20.793Z,13.57
2023-02-06T08:32:43.231Z,14.97
2023-02-06T08:35:06.997Z,15.67
2023-02-06T08:37:31.893Z,16.93
2023-02-06T08:39:55.159Z,19.40
2023-02-06T08:42:20.053Z,13.83
2023-02-06T08:44:42.693Z,10.60
2023-02-06T08:47:10.323Z,14.77
2023-02-06T08:49:35.966Z,11.33
2023-02-06T08:52:01.682Z,14.40
2023-02-06T08:54:24.838Z,11.33
2023-02-06T08:56:47.582Z,15.00
2023-02-06T08:59:11.070Z,13.93
2023-02-06T09:01:35.156Z,14.03
2023-02-06T09:03:59.172Z,9.10
2023-02-06T09:06:22.539Z,14.77
2023-02-06T09:08:45.431Z,16.73
2023-02-06T09:14:06.643Z,12.80
2023-02-06T09:16:30.270Z,11.93
2023-02-06T09:18:55.625Z,11.40
2023-02-06T09:21:27.318Z,14.87
2023-02-06T09:23:53.260Z,13.13
2023-02-06T09:28:57.741Z,13.53
2023-02-06T09:31:20.410Z,9.63
2023-02-06T09:33:45.663Z,13.37
2023-02-06T09:36:14.248Z,11.23
2023-02-06T09:38:38.677Z,8.87
2023-02-06T09:41:04.760Z,13.53
2023-02-06T09:43:30.982Z,11.67
2023-02-06T09:45:58.292Z,8.40
2023-02-06T09:48:30.203Z,11.37
2023-02-06T09:51:25.624Z,13.20
2023-02-06T09:53:55.724Z,16.70
2023-02-06T09:56:33.420Z,9.97
2023-02-06T09:58:59.750Z,7.97
2023-02-06T10:01:28.294Z,11.63
2023-02-06T10:04:19.284Z,11.40
2023-02-06T10:06:42.086Z,9.30
2023-02-06T10:09:31.664Z,8.67
2023-02-06T10:11:55.636Z,9.33
2023-02-06T10:14:22.426Z,7.77
2023-02-06T10:16:50.044Z,10.50
2023-02-06T10:19:18.524Z,7.33
2023-02-06T10:21:53.742Z,6.60
2023-02-06T10:24:36.569Z,8.07
2023-02-06T10:27:03.980Z,7.60
2023-02-06T10:29:31.179Z,11.23
2023-02-06T10:32:12.673Z,8.77
2023-02-06T10:34:42.873Z,6.73
2023-02-06T10:37:15.596Z,11.00
2023-02-06T10:39:53.172Z,9.87
2023-02-06T10:42:34.756Z,6.57
2023-02-06T10:45:20.688Z,6.50
2023-02-06T10:48:02.772Z,8.43
2023-02-06T10:50:38.505Z,7.27
2023-02-06T10:53:04.927Z,5.73
2023-02-06T10:55:31.448Z,3.97
2023-02-06T11:03:40.424Z,6.90
2023-02-06T11:06:05.413Z,6.33
2023-02-06T11:08:33.899Z,9.23
2023-02-06T11:11:05.038Z,3.97
2023-02-06T11:13:27.886Z,7.53
2023-02-06T11:16:10.325Z,4.73
2023-02-06T11:18:36.839Z,5.83
2023-02-06T11:23:39.317Z,4.20
2023-02-06T11:26:06.257Z,4.93
2023-02-06T11:28:28.898Z,6.90
2023-02-06T11:31:04.559Z,5.87
2023-02-06T11:33:32.413Z,7.03
2023-02-06T11:36:01.757Z,4.97
2023-02-06T11:38:30.606Z,10.60
2023-02-06T11:41:03.028Z,8.00
2023-02-06T11:43:26.835Z,5.13
2023-02-06T11:45:52.335Z,5.50
2023-02-06T11:48:33.246Z,3.23
2023-02-06T11:50:55.951Z,4.73
2023-02-06T11:53:22.278Z,6.20
2023-02-06T11:55:45.886Z,4.33
2023-02-06T11:58:14.440Z,3.77
2023-02-06T12:00:57.373Z,7.30
2023-02-06T12:03:25.721Z,6.40
2023-02-06T12:05:50.233Z,5.43
2023-02-06T12:08:16.154Z,4.90
2023-02-06T12:10:42.383Z,7.23
2023-02-06T12:13:09.629Z,6.00
2023-02-06T12:15:46.879Z,7.67
2023-02-06T12:18:13.962Z,6.23
2023-02-06T12:20:44.162Z,5.77
2023-02-06T12:23:13.702Z,7.30
2023-02-06T12:25:41.744Z,5.00
2023-02-06T12:28:13.234Z,4.50
2023-02-06T12:30:47.025Z,6.53
2023-02-06T12:33:20.713Z,4.87
2023-02-06T12:35:59.640Z,5.23
2023-02-06T12:38:31.806Z,4.43
2023-02-06T12:40:59.382Z,6.70
2023-02-06T12:43:26.213Z,5.37
2023-02-06T12:46:07.563Z,5.10
2023-02-06T12:48:44.442Z,6.73
2023-02-06T12:51:16.222Z,4.13
2023-02-06T12:53:51.672Z,6.63
2023-02-06T12:56:34.885Z,6.03
2023-02-06T12:59:03.166Z,5.90
2023-02-06T13:01:30.715Z,6.37
2023-02-06T13:03:57.314Z,3.27
2023-02-06T13:06:24.680Z,3.60
2023-02-06T13:08:59.022Z,3.83
2023-02-06T13:11:29.843Z,4.27
2023-02-06T13:14:06.456Z,4.67
2023-02-06T13:16:38.911Z,5.73
2023-02-06T13:19:04.811Z,5.07
2023-02-06T13:21:28.841Z,6.47
2023-02-06T13:23:51.360Z,4.97
2023-02-06T13:26:13.890Z,4.40
2023-02-06T13:28:39.296Z,3.57
2023-02-06T13:31:03.054Z,4.67
2023-02-06T13:33:26.429Z,5.63
2023-02-06T13:36:02.129Z,6.13
2023-02-06T13:38:27.175Z,5.83
2023-02-06T13:41:09.484Z,5.60
2023-02-06T13:43:32.279Z,4.67
2023-02-06T13:45:59.873Z,6.13
2023-02-06T13:48:50.204Z,4.77
2023-02-06T13:51:21.319Z,4.33
2023-02-06T13:54:07.313Z,4.27
2023-02-06T13:56:48.903Z,4.93
2023-02-06T13:59:25.462Z,6.97
2023-02-06T14:01:55.120Z,3.43
2023-02-06T14:04:26.620Z,4.17
2023-02-06T14:06:48.857Z,2.50
2023-02-06T14:09:16.420Z,3.70
2023-02-06T14:12:16.040Z,6.63
2023-02-06T14:14:54.146Z,4.30
2023-02-06T14:17:16.808Z,5.80
2023-02-06T14:19:45.464Z,7.10
2023-02-06T14:22:26.744Z,4.67
2023-02-06T14:24:51.907Z,3.27
2023-02-06T14:27:14.275Z,3.63
2023-02-06T14:29:56.592Z,3.03
2023-02-06T14:32:22.588Z,5.00
2023-02-06T14:34:54.338Z,7.03
2023-02-06T14:37:20.771Z,3.83
2023-02-06T14:39:45.299Z,3.53
2023-02-06T14:42:12.841Z,3.47
2023-02-06T14:44:35.785Z,3.50
2023-02-06T14:46:59.194Z,6.23
2023-02-06T14:49:30.701Z,5.00
2023-02-06T14:51:56.732Z,3.53
2023-02-06T14:54:31.786Z,4.60
2023-02-06T14:56:58.816Z,2.97
2023-02-06T14:59:23.337Z,3.53
2023-02-06T15:01:50.610Z,15.53
2023-02-06T15:04:18.199Z,4.57
2023-02-06T15:06:45.464Z,4.13
2023-02-06T15:09:08.280Z,5.37
2023-02-06T15:11:33.014Z,6.50
2023-02-06T15:13:56.995Z,4.93
2023-02-06T15:16:20.562Z,2.80
2023-02-06T15:18:43.592Z,4.77
2023-02-06T15:21:07.932Z,6.33
2023-02-06T15:23:42.188Z,6.13
2023-02-06T15:26:09.036Z,3.90
2023-02-06T15:28:33.205Z,3.47
2023-02-06T15:31:04.014Z,3.67
2023-02-06T15:33:28.015Z,5.47
2023-02-06T15:35:57.419Z,3.87
2023-02-06T15:38:20.792Z,5.37
2023-02-06T15:40:45.996Z,2.70
2023-02-06T15:43:10.845Z,4.33
2023-02-06T15:45:39.661Z,4.93
2023-02-06T15:48:13.234Z,4.00
2023-02-06T15:50:37.615Z,4.67
2023-02-06T15:53:00.152Z,5.70
2023-02-06T15:55:30.206Z,8.40
2023-02-06T15:57:55.386Z,7.27
2023-02-06T16:00:31.682Z,6.63
2023-02-06T16:02:56.266Z,6.37
2023-02-06T16:05:23.595Z,7.70
2023-02-06T16:07:48.010Z,4.13
2023-02-06T16:10:36.890Z,4.83
2023-02-06T16:13:01.972Z,6.13
2023-02-06T16:15:25.268Z,5.57
2023-02-06T16:18:01.067Z,6.73
2023-02-06T16:20:38.314Z,4.87
2023-02-06T16:23:22.619Z,8.17
2023-02-06T16:25:45.948Z,14.10
2023-02-06T16:28:20.642Z,6.50
2023-02-06T16:30:58.410Z,12.67
2023-02-06T16:33:30.650Z,6.70
2023-02-06T16:36:00.672Z,8.37
2023-02-06T16:38:23.104Z,9.20
2023-02-06T16:40:47.582Z,9.13
2023-02-06T16:43:13.014Z,9.10
2023-02-06T16:45:35.642Z,9.47
2023-02-06T16:47:58.478Z,10.70
2023-02-06T16:53:04.667Z,8.67
2023-02-06T16:55:28.948Z,5.77
2023-02-06T16:57:55.369Z,9.30
2023-02-06T17:00:26.845Z,8.83
2023-02-06T17:02:52.448Z,6.90
2023-02-06T17:05:16.333Z,14.13
2023-02-06T17:07:46.232Z,8.53
2023-02-06T17:10:09.278Z,7.43
2023-02-06T17:12:48.837Z,9.27
2023-02-06T17:15:15.761Z,7.97
2023-02-06T17:17:38.624Z,9.13
2023-02-06T17:20:01.029Z,13.23
2023-02-06T17:22:23.422Z,23.87
2023-02-06T17:24:58.524Z,28.37
2023-02-06T17:27:22.305Z,13.40
2023-02-06T17:29:47.854Z,8.50
2023-02-06T17:32:11.672Z,9.20
2023-02-06T17:34:34.727Z,5.60
2023-02-06T17:37:02.595Z,7.47
2023-02-06T17:39:24.909Z,5.93
2023-02-06T17:41:50.470Z,9.13
2023-02-06T17:44:22.393Z,10.57
2023-02-06T17:49:24.695Z,6.53
2023-02-06T17:51:47.745Z,9.23
2023-02-06T17:54:17.458Z,11.93
2023-02-06T17:56:42.747Z,9.53
2023-02-06T17:59:05.196Z,11.30
2023-02-06T18:01:36.144Z,10.27
2023-02-06T18:04:07.903Z,12.13
2023-02-06T18:09:18.165Z,14.20
2023-02-06T18:11:40.693Z,14.10
2023-02-06T18:14:03.041Z,12.03
2023-02-06T18:16:38.395Z,8.77
2023-02-06T18:19:03.105Z,10.60
2023-02-06T18:21:26.024Z,11.43
2023-02-06T18:23:52.133Z,11.00
2023-02-06T18:26:14.794Z,11.83
2023-02-06T18:28:38.266Z,13.33
2023-02-06T18:31:02.391Z,8.80
2023-02-06T18:33:26.261Z,13.50
2023-02-06T18:35:51.432Z,11.03
2023-02-06T18:38:14.659Z,11.17
2023-02-06T18:40:39.025Z,10.40
2023-02-06T18:43:01.481Z,12.10
2023-02-06T18:45:34.378Z,9.93
2023-02-06T18:47:57.011Z,12.30
2023-02-06T18:50:21.704Z,17.17
2023-02-06T18:52:44.120Z,36.73
2023-02-06T18:55:08.316Z,29.43
2023-02-06T18:57:32.488Z,27.83
2023-02-06T18:59:55.152Z,22.53
2023-02-06T19:02:17.684Z,12.20
2023-02-06T19:04:49.342Z,12.70
2023-02-06T19:07:14.502Z,14.40
2023-02-06T19:09:39.121Z,18.40
2023-02-06T19:12:01.664Z,14.40
2023-02-06T19:14:28.105Z,10.60
2023-02-06T19:16:51.379Z,12.73
2023-02-06T19:19:14.040Z,17.23
2023-02-06T19:21:39.079Z,12.50
2023-02-06T19:24:05.761Z,10.73
2023-02-06T19:26:29.302Z,15.53
2023-02-06T19:29:02.710Z,10.30
2023-02-06T19:31:25.680Z,11.77
2023-02-06T19:33:48.508Z,13.90
2023-02-06T19:36:12.682Z,10.60
2023-02-06T19:38:35.580Z,19.53
2023-02-06T19:40:58.351Z,16.20
2023-02-06T19:43:20.932Z,12.10
2023-02-06T19:45:44.179Z,13.17
2023-02-06T19:48:22.931Z,15.83
2023-02-06T19:50:45.424Z,11.67
2023-02-06T19:53:07.783Z,10.70
2023-02-06T19:55:31.219Z,12.47
2023-02-06T19:57:53.897Z,11.00
2023-02-06T20:00:16.393Z,16.60
2023-02-06T20:02:40.687Z,11.33
2023-02-06T20:05:03.409Z,14.53
2023-02-06T20:07:29.208Z,11.30
2023-02-06T20:09:52.521Z,11.63
2023-02-06T20:12:15.850Z,16.40
2023-02-06T20:14:39.044Z,15.17
2023-02-06T20:17:01.986Z,21.93
2023-02-06T20:19:28.878Z,17.87
2023-02-06T20:21:52.711Z,18.70
2023-02-06T20:24:21.211Z,13.73
2023-02-06T20:26:44.236Z,13.30
2023-02-06T20:29:07.160Z,14.03
2023-02-06T20:31:30.271Z,18.73
2023-02-06T20:33:53.746Z,12.97
2023-02-06T20:36:26.396Z,19.67
2023-02-06T20:38:53.674Z,14.50
2023-02-06T20:41:16.024Z,16.50
2023-02-06T20:43:38.332Z,15.73
2023-02-06T20:46:00.764Z,16.27
2023-02-06T20:48:23.396Z,12.17
2023-02-06T20:50:45.718Z,15.63
2023-02-06T20:53:08.994Z,14.03
2023-02-06T20:55:31.594Z,16.60
2023-02-06T20:57:57.035Z,14.60
2023-02-06T21:00:30.624Z,12.60
2023-02-06T21:02:56.202Z,48.00
2023-02-06T21:05:18.962Z,17.37
2023-02-06T21:07:42.027Z,24.77
2023-02-06T21:10:11.910Z,16.37
2023-02-06T21:12:34.492Z,20.90
2023-02-06T21:15:16.703Z,21.47
2023-02-06T21:28:43.092Z,23.20
2023-02-06T21:31:37.502Z,26.10
2023-02-06T21:34:10.126Z,21.93
2023-02-06T21:36:36.376Z,22.50
2023-02-06T21:39:00.117Z,21.00
2023-02-06T21:44:24.776Z,19.90
2023-02-06T21:46:50.884Z,27.63
2023-02-06T21:49:14.047Z,25.67
2023-02-06T21:51:37.820Z,20.53
2023-02-06T21:54:10.307Z,23.00
2023-02-06T21:56:33.482Z,16.63
2023-02-06T21:59:04.084Z,18.90
2023-02-06T22:04:20.804Z,17.47
2023-02-06T22:06:44.354Z,14.23
2023-02-06T22:09:08.288Z,11.40
2023-02-06T22:11:31.572Z,16.70
2023-02-06T22:13:54.616Z,19.13
2023-02-06T22:16:26.695Z,14.17
2023-02-06T22:18:49.771Z,18.93
2023-02-06T22:21:13.763Z,13.57
2023-02-06T22:23:36.282Z,18.63
2023-02-06T22:25:58.664Z,13.57
2023-02-06T22:28:22.202Z,12.63
2023-02-06T22:30:47.719Z,13.63
2023-02-06T22:33:10.367Z,15.10
2023-02-06T22:35:32.651Z,12.17
2023-02-06T22:37:56.287Z,15.50
2023-02-06T22:40:18.603Z,20.37
2023-02-06T22:42:41.032Z,18.47
2023-02-06T22:45:03.348Z,20.17
2023-02-06T22:47:25.645Z,20.13
2023-02-06T22:49:50.810Z,15.10
2023-02-06T22:52:31.799Z,15.83
2023-02-06T22:54:54.649Z,21.30
2023-02-06T22:57:17.243Z,16.23
2023-02-06T22:59:41.231Z,12.47
2023-02-06T23:02:03.905Z,21.83
2023-02-06T23:04:27.465Z,19.33
2023-02-06T23:06:50.591Z,14.63
2023-02-06T23:09:14.731Z,22.93
2023-02-06T23:11:37.234Z,18.70
2023-02-06T23:14:00.905Z,19.60
2023-02-06T23:16:23.461Z,17.27
2023-02-06T23:18:46.283Z,23.87
2023-02-06T23:21:12.435Z,10.97
2023-02-06T23:23:34.873Z,16.77
2023-02-06T23:25:57.820Z,15.43
2023-02-06T23:28:20.679Z,18.27
2023-02-06T23:30:43.267Z,12.87
2023-02-06T23:33:05.737Z,15.30
2023-02-06T23:35:28.420Z,12.43
2023-02-06T23:37:50.802Z,18.70
2023-02-06T23:40:13.177Z,12.77
2023-02-06T23:42:35.748Z,13.57
2023-02-06T23:44:58.160Z,18.27
2023-02-06T23:47:20.465Z,17.20
2023-02-06T23:49:42.788Z,14.23
2023-02-06T23:52:05.227Z,13.70
2023-02-06T23:54:27.691Z,20.77
2023-02-06T23:56:50.271Z,10.73
2023-02-06T23:59:12.611Z,13.53
